This is the latest recevied weather packets stored in our database for station/object N1NCB-3. If no packets are shown the sender has not sent any weather packets the latest 10 day(s).
| Time | Temp. | Humidity | Pressure | Rain* | Wind** | Luminosity | Snow |
|---|---|---|---|---|---|---|---|
| 1777671689 | 23.89° C | 40% | 1004 hPa | 0 mm | - | - | - |
| 1777671389 | 22.22° C | 42% | 1004 hPa | 0 mm | - | - | - |
| 1777671089 | 21.67° C | 41% | 1004 hPa | 0 mm | - | - | - |
| 1777670789 | 22.22° C | 42% | 1004 hPa | 0 mm | - | - | - |
| 1777670489 | 22.22° C | 42% | 1004.4 hPa | 0 mm | - | - | - |
| 1777670189 | 21.11° C | 45% | 1004 hPa | 0 mm | - | - | - |
| 1777669889 | 19.44° C | 44% | 1004 hPa | 0 mm | - | - | - |
| 1777669589 | 21.67° C | 39% | 1004 hPa | 0 mm | - | - | - |
| 1777669289 | 23.33° C | 39% | 1004 hPa | 0 mm | - | - | - |
| 1777668989 | 24.44° C | 40% | 1003.7 hPa | 0 mm | - | - | - |
| 1777668689 | 23.89° C | 37% | 1003.7 hPa | 0 mm | - | - | - |
| 1777668389 | 23.33° C | 40% | 1003.7 hPa | 0 mm | - | - | - |
| 1777668089 | 23.33° C | 40% | 1003.7 hPa | 0 mm | - | - | - |
| 1777667789 | 23.33° C | 40% | 1003.7 hPa | 0 mm | - | - | - |
| 1777667489 | 23.33° C | 40% | 1003.7 hPa | 0 mm | - | - | - |
| 1777667189 | 22.78° C | 42% | 1003.7 hPa | 0 mm | - | - | - |
| 1777666889 | 23.33° C | 40% | 1003.7 hPa | 0 mm | - | - | - |
| 1777666589 | 23.33° C | 41% | 1003.7 hPa | 0 mm | - | - | - |
| 1777666289 | 18.33° C | 46% | 1003.7 hPa | 0 mm | - | - | - |
| 1777665989 | 18.33° C | 50% | 1003.7 hPa | 0 mm | - | - | - |
| 1777665689 | 18.33° C | 50% | 1003.7 hPa | 0 mm | - | - | - |
| 1777665389 | 16.11° C | 53% | 1003.7 hPa | 0 mm | - | - | - |
| 1777665089 | 15.56° C | 53% | 1003.7 hPa | 0 mm | - | - | - |
| 1777664789 | 15.56° C | 53% | 1003.7 hPa | 0 mm | - | - | - |
| 1777664489 | 15.56° C | 53% | 1003.7 hPa | 0 mm | - | - | - |
* Rain latest hour (hover to see other rain measurements)
** Current wind speed in m/s (hover to see current wind gust speed)